F/V Eguzki Lore — ECGF — position and weather

sailwx.info

Track history (hours):
 
Tides and Currents Weather Stations Pressure Air Temp Water Temp Dewpoint Dewpoint Depression Visibility Wind Speed Wind Dir Waves Ship Positions

F/V Eguzki Lore

Last reported at 2018-Jun-25 15:11 UTC. Time now 2018-Jun-25 19:45 UTC.
Position N 43°20' W 002°25'.

Length 37 m.

Type: Fishing. MMSI: 224265000.

Date/timePositionNaut miles runAvg speedWind from/ knotsBaromVisibWave heightAir tempDewpointWater temp
2018-Jun-25 15:11N 43°20' W 002°25'0 0.0
2018-Jun-25 14:59N 43°20' W 002°25'0 0.0
2018-Jun-25 14:18N 43°20' W 002°25'0 0.0
2018-Jun-25 14:00N 43°20' W 002°25'0 0.0
2018-Jun-25 13:26N 43°20' W 002°25'0 0.0
2018-Jun-25 13:00N 43°20' W 002°25'0 0.0
2018-Jun-25 12:31N 43°20' W 002°25'0 0.0
2018-Jun-25 10:41N 43°20' W 002°25'0 0.0
2018-Jun-25 10:30N 43°20' W 002°25'0 0.0
2018-Jun-25 09:55N 43°20' W 002°25'0 0.0
2018-Jun-25 09:29N 43°20' W 002°25'0 0.0
2018-Jun-25 08:59N 43°20' W 002°25'0 0.0
2018-Jun-25 08:18N 43°20' W 002°25'0 0.0
2018-Jun-25 07:14N 43°20' W 002°25'0 0.0
2018-Jun-24 19:37N 43°20' W 002°25'0 0.0
2018-Jun-24 19:28N 43°20' W 002°25'0 0.0
2018-Jun-24 18:59N 43°20' W 002°25'0 0.0
2018-Jun-24 17:12N 43°20' W 002°25'0 1.4
2018-Jun-24 17:00N 43°20' W 002°25'510.0
2018-Jun-24 16:30N 43°25' W 002°26'511.0
2018-Jun-24 16:00N 43°30' W 002°28'611.0
2018-Jun-24 15:31N 43°35' W 002°30'510.9
2018-Jun-24 15:00N 43°40' W 002°32'510.8
2018-Jun-24 14:31N 43°46' W 002°34'510.5
2018-Jun-24 14:00N 43°51' W 002°35'510.2
2018-Jun-24 13:31N 43°56' W 002°37'510.2
2018-Jun-24 13:00N 44°01' W 002°39'610.3
2018-Jun-24 12:25N 44°07' W 002°41'  
2018-Jun-21 03:02N 45°24' W 002°35'0 4.1
2018-Jun-21 02:57N 45°24' W 002°35'6 0.2
2018-Jun-19 17:40N 45°18' W 002°36'79 4.0
2018-Jun-18 21:47N 43°59' W 002°25'310.9
2018-Jun-18 21:29N 43°56' W 002°25'510.7
2018-Jun-18 21:01N 43°51' W 002°25'611.0
2018-Jun-18 20:29N 43°45' W 002°25'511.0
2018-Jun-18 20:00N 43°40' W 002°25'510.8
2018-Jun-18 19:31N 43°34' W 002°24'511.0
2018-Jun-18 19:01N 43°29' W 002°24'611.2
2018-Jun-18 18:30N 43°23' W 002°25'2 0.1
2018-Jun-17 17:41N 43°21' W 002°24'211.1
2018-Jun-17 17:30N 43°22' W 002°22'611.1
2018-Jun-17 17:01N 43°27' W 002°18'611.3
2018-Jun-17 16:31N 43°32' W 002°15'611.4
2018-Jun-17 16:01N 43°37' W 002°11'610.9
2018-Jun-17 15:30N 43°42' W 002°08'510.6
2018-Jun-17 15:01N 43°47' W 002°04'510.8
2018-Jun-17 14:31N 43°51' W 002°01'610.7
2018-Jun-17 13:58N 43°56' W 001°57'28 3.1
2018-Jun-17 05:04N 44°24' W 001°50'  
Track history (hours):
 
Tides and Currents Weather Stations Pressure Air Temp Water Temp Dewpoint Dewpoint Depression Visibility Wind Speed Wind Dir Waves Ship Positions

F/V Eguzki Lore

Last reported at 2018-Jun-25 15:11 UTC. Time now 2018-Jun-25 19:45 UTC.
Position N 43°20' W 002°25'.

Length 37 m.

Type: Fishing. MMSI: 224265000.

Date/timePositionNaut miles runAvg speedWind from/ knotsBaromVisibWave heightAir tempDewpointWater temp
2018-Jun-25 15:11N 43°20' W 002°25'0 0.0
2018-Jun-25 14:59N 43°20' W 002°25'0 0.0
2018-Jun-25 14:18N 43°20' W 002°25'0 0.0
2018-Jun-25 14:00N 43°20' W 002°25'0 0.0
2018-Jun-25 13:26N 43°20' W 002°25'0 0.0
2018-Jun-25 13:00N 43°20' W 002°25'0 0.0
2018-Jun-25 12:31N 43°20' W 002°25'0 0.0
2018-Jun-25 10:41N 43°20' W 002°25'0 0.0
2018-Jun-25 10:30N 43°20' W 002°25'0 0.0
2018-Jun-25 09:55N 43°20' W 002°25'0 0.0
2018-Jun-25 09:29N 43°20' W 002°25'0 0.0
2018-Jun-25 08:59N 43°20' W 002°25'0 0.0
2018-Jun-25 08:18N 43°20' W 002°25'0 0.0
2018-Jun-25 07:14N 43°20' W 002°25'0 0.0
2018-Jun-24 19:37N 43°20' W 002°25'0 0.0
2018-Jun-24 19:28N 43°20' W 002°25'0 0.0
2018-Jun-24 18:59N 43°20' W 002°25'0 0.0
2018-Jun-24 17:12N 43°20' W 002°25'0 1.4
2018-Jun-24 17:00N 43°20' W 002°25'510.0
2018-Jun-24 16:30N 43°25' W 002°26'511.0
2018-Jun-24 16:00N 43°30' W 002°28'611.0
2018-Jun-24 15:31N 43°35' W 002°30'510.9
2018-Jun-24 15:00N 43°40' W 002°32'510.8
2018-Jun-24 14:31N 43°46' W 002°34'510.5
2018-Jun-24 14:00N 43°51' W 002°35'510.2
2018-Jun-24 13:31N 43°56' W 002°37'510.2
2018-Jun-24 13:00N 44°01' W 002°39'610.3
2018-Jun-24 12:25N 44°07' W 002°41'  
2018-Jun-21 03:02N 45°24' W 002°35'0 4.1
2018-Jun-21 02:57N 45°24' W 002°35'6 0.2
2018-Jun-19 17:40N 45°18' W 002°36'79 4.0
2018-Jun-18 21:47N 43°59' W 002°25'310.9
2018-Jun-18 21:29N 43°56' W 002°25'510.7
2018-Jun-18 21:01N 43°51' W 002°25'611.0
2018-Jun-18 20:29N 43°45' W 002°25'511.0
2018-Jun-18 20:00N 43°40' W 002°25'510.8
2018-Jun-18 19:31N 43°34' W 002°24'511.0
2018-Jun-18 19:01N 43°29' W 002°24'611.2
2018-Jun-18 18:30N 43°23' W 002°25'2 0.1
2018-Jun-17 17:41N 43°21' W 002°24'211.1
2018-Jun-17 17:30N 43°22' W 002°22'611.1
2018-Jun-17 17:01N 43°27' W 002°18'611.3
2018-Jun-17 16:31N 43°32' W 002°15'611.4
2018-Jun-17 16:01N 43°37' W 002°11'610.9
2018-Jun-17 15:30N 43°42' W 002°08'510.6
2018-Jun-17 15:01N 43°47' W 002°04'510.8
2018-Jun-17 14:31N 43°51' W 002°01'610.7
2018-Jun-17 13:58N 43°56' W 001°57'28 3.1
2018-Jun-17 05:04N 44°24' W 001°50'  

Dump ship's entire track history